DAL9406 KATL-MYNN
Flight info
| Callsign | DAL9406 |
|---|---|
| Flight time | 1h 40m |
| Altitude | 35000 |
| Route | VRSTY3 NOKIE DCT YANTI Q89 SHRKS DCT DEBRL Q97 MALET DCT TRV DCT ZFP BR63V MELON |
| Aircraft | A21N/M-SDE2E3FGHIRWXY/LB1 |
Departure
| Time | 2026-05-04 14:52 |
|---|---|
| Airport | Hartsfield Jackson Atlanta International Airport (KATL) |
Arrival
| Time | 2026-05-04 16:32 |
|---|---|
| Airport | Lynden Pindling International Airport (MYNN) |
| Time | Latitude | Longitude | Altitude | Speed | Heading |
|---|---|---|---|---|---|
| 2026-05-04 14:07 | 33.64031 | -84.42880 | 1041 ft | 0 kts | 270° |
| 2026-05-04 14:33 | 33.64031 | -84.42877 | 1041 ft | 3 kts | 270° |
| 2026-05-04 14:34 | 33.64034 | -84.42845 | 1041 ft | 4 kts | 252° |
| 2026-05-04 14:34 | 33.64046 | -84.42819 | 1041 ft | 4 kts | 219° |
| 2026-05-04 14:34 | 33.64065 | -84.42809 | 1041 ft | 1 kts | 180° |
| 2026-05-04 14:34 | 33.64070 | -84.42809 | 1041 ft | 0 kts | 180° |
| 2026-05-04 14:43 | 33.64059 | -84.42809 | 1041 ft | 4 kts | 180° |
| 2026-05-04 14:44 | 33.64022 | -84.42809 | 1041 ft | 7 kts | 180° |
| 2026-05-04 14:44 | 33.63968 | -84.42810 | 1041 ft | 9 kts | 180° |
| 2026-05-04 14:44 | 33.63899 | -84.42809 | 1041 ft | 11 kts | 179° |
| 2026-05-04 14:44 | 33.63815 | -84.42808 | 1041 ft | 13 kts | 179° |
| 2026-05-04 14:45 | 33.63751 | -84.42808 | 1041 ft | 0 kts | 179° |
| 2026-05-04 14:45 | 33.63739 | -84.42807 | 1041 ft | 4 kts | 179° |
| 2026-05-04 14:45 | 33.63702 | -84.42805 | 1041 ft | 6 kts | 167° |
| 2026-05-04 14:45 | 33.63668 | -84.42763 | 1041 ft | 9 kts | 109° |
| 2026-05-04 14:46 | 33.63656 | -84.42682 | 1041 ft | 11 kts | 90° |
| 2026-05-04 14:46 | 33.63657 | -84.42581 | 1041 ft | 13 kts | 89° |
| 2026-05-04 14:46 | 33.63658 | -84.42464 | 1041 ft | 15 kts | 90° |
| 2026-05-04 14:46 | 33.63658 | -84.42332 | 1041 ft | 17 kts | 90° |
| 2026-05-04 14:47 | 33.63657 | -84.42184 | 1041 ft | 19 kts | 93° |
| 2026-05-04 14:47 | 33.63655 | -84.42023 | 1041 ft | 20 kts | 90° |
| 2026-05-04 14:47 | 33.63656 | -84.41846 | 1041 ft | 22 kts | 89° |
| 2026-05-04 14:47 | 33.63656 | -84.41667 | 1041 ft | 21 kts | 90° |
| 2026-05-04 14:48 | 33.63656 | -84.41484 | 1040 ft | 23 kts | 90° |
| 2026-05-04 14:48 | 33.63656 | -84.41308 | 1040 ft | 21 kts | 89° |
| 2026-05-04 14:48 | 33.63659 | -84.41123 | 1041 ft | 23 kts | 89° |
| 2026-05-04 14:48 | 33.63657 | -84.40933 | 1041 ft | 19 kts | 90° |
| 2026-05-04 14:49 | 33.63657 | -84.40898 | 1041 ft | 2 kts | 88° |
| 2026-05-04 14:49 | 33.63658 | -84.40873 | 1041 ft | 4 kts | 89° |
| 2026-05-04 14:49 | 33.63658 | -84.40829 | 1041 ft | 6 kts | 89° |
| 2026-05-04 14:49 | 33.63659 | -84.40785 | 1041 ft | 3 kts | 90° |
| 2026-05-04 14:50 | 33.63644 | -84.40755 | 1041 ft | 6 kts | 149° |
| 2026-05-04 14:50 | 33.63597 | -84.40747 | 1041 ft | 8 kts | 178° |
| 2026-05-04 14:50 | 33.63532 | -84.40745 | 1042 ft | 10 kts | 181° |
| 2026-05-04 14:50 | 33.63475 | -84.40796 | 1041 ft | 12 kts | 259° |
| 2026-05-04 14:51 | 33.63472 | -84.40859 | 1042 ft | 0 kts | 272° |
| 2026-05-04 14:51 | 33.63473 | -84.40882 | 1042 ft | 19 kts | 271° |
| 2026-05-04 14:51 | 33.63472 | -84.41351 | 1041 ft | 91 kts | 274° |
| 2026-05-04 14:51 | 33.63473 | -84.42371 | 1042 ft | 151 kts | 269° |
| 2026-05-04 14:52 | 33.63457 | -84.44015 | 1134 ft | 237 kts | 269° |
| 2026-05-04 14:52 | 33.63453 | -84.46201 | 1805 ft | 271 kts | 270° |
| 2026-05-04 14:52 | 33.63464 | -84.48396 | 2735 ft | 255 kts | 269° |
| 2026-05-04 14:52 | 33.63465 | -84.50442 | 3710 ft | 235 kts | 269° |
| 2026-05-04 14:53 | 33.63471 | -84.52338 | 4555 ft | 220 kts | 270° |
| 2026-05-04 14:53 | 33.63474 | -84.54098 | 5316 ft | 200 kts | 270° |
| 2026-05-04 14:53 | 33.63474 | -84.55723 | 6185 ft | 195 kts | 270° |
| 2026-05-04 14:53 | 33.63464 | -84.57363 | 6878 ft | 203 kts | 269° |
| 2026-05-04 14:54 | 33.63440 | -84.59081 | 7675 ft | 213 kts | 269° |
| 2026-05-04 14:54 | 33.63399 | -84.60943 | 8667 ft | 233 kts | 269° |
| 2026-05-04 14:54 | 33.63406 | -84.62971 | 9562 ft | 253 kts | 269° |
| 2026-05-04 14:54 | 33.63072 | -84.65183 | 9830 ft | 293 kts | 248° |
| 2026-05-04 14:55 | 33.61894 | -84.67197 | 10010 ft | 294 kts | 221° |
| 2026-05-04 14:55 | 33.60156 | -84.68475 | 10042 ft | 294 kts | 208° |
| 2026-05-04 14:55 | 33.58287 | -84.69476 | 10027 ft | 295 kts | 200° |
| 2026-05-04 14:55 | 33.56260 | -84.69752 | 10008 ft | 297 kts | 175° |
| 2026-05-04 14:56 | 33.54215 | -84.69348 | 10008 ft | 298 kts | 169° |
| 2026-05-04 14:56 | 33.52175 | -84.68867 | 10000 ft | 298 kts | 170° |
| 2026-05-04 14:56 | 33.50141 | -84.68420 | 10006 ft | 298 kts | 171° |
| 2026-05-04 14:56 | 33.48120 | -84.68003 | 10004 ft | 298 kts | 171° |
| 2026-05-04 14:57 | 33.46076 | -84.67598 | 10000 ft | 298 kts | 172° |
| 2026-05-04 14:57 | 33.44039 | -84.67184 | 10164 ft | 297 kts | 168° |
| 2026-05-04 14:57 | 33.42104 | -84.66256 | 10733 ft | 309 kts | 146° |
| 2026-05-04 14:57 | 33.40585 | -84.64340 | 11099 ft | 330 kts | 122° |
| 2026-05-04 14:58 | 33.39428 | -84.61872 | 11440 ft | 351 kts | 117° |
| 2026-05-04 14:58 | 33.38255 | -84.59247 | 11983 ft | 363 kts | 118° |
| 2026-05-04 14:58 | 33.37028 | -84.56585 | 12761 ft | 368 kts | 118° |
| 2026-05-04 14:58 | 33.36193 | -84.54804 | 13284 ft | 371 kts | 119° |
| 2026-05-04 14:59 | 33.34462 | -84.51175 | 14266 ft | 379 kts | 120° |
| 2026-05-04 14:59 | 33.33139 | -84.48422 | 14965 ft | 385 kts | 120° |
| 2026-05-04 14:59 | 33.30426 | -84.42799 | 16379 ft | 395 kts | 120° |
| 2026-05-04 15:00 | 33.29047 | -84.39943 | 16842 ft | 398 kts | 120° |
| 2026-05-04 15:00 | 33.27658 | -84.37070 | 17007 ft | 399 kts | 120° |
| 2026-05-04 15:00 | 33.26264 | -84.34191 | 17037 ft | 400 kts | 120° |
| 2026-05-04 15:01 | 33.23947 | -84.29399 | 17028 ft | 401 kts | 120° |
| 2026-05-04 15:01 | 33.22095 | -84.25585 | 17363 ft | 400 kts | 121° |
| 2026-05-04 15:01 | 33.20689 | -84.22700 | 18008 ft | 403 kts | 121° |
| 2026-05-04 15:01 | 33.19272 | -84.19795 | 18696 ft | 407 kts | 121° |
| 2026-05-04 15:02 | 33.18310 | -84.17814 | 19163 ft | 409 kts | 121° |
| 2026-05-04 15:02 | 33.16896 | -84.14896 | 19803 ft | 413 kts | 121° |
| 2026-05-04 15:02 | 33.15432 | -84.11879 | 20433 ft | 417 kts | 121° |
| 2026-05-04 15:02 | 33.13988 | -84.08913 | 21030 ft | 421 kts | 121° |
| 2026-05-04 15:03 | 33.12505 | -84.05873 | 21587 ft | 426 kts | 121° |
| 2026-05-04 15:03 | 33.11003 | -84.02798 | 22103 ft | 431 kts | 121° |
| 2026-05-04 15:03 | 33.09457 | -83.99709 | 22608 ft | 436 kts | 125° |
| 2026-05-04 15:03 | 33.07540 | -83.96916 | 23127 ft | 436 kts | 139° |
| 2026-05-04 15:04 | 33.05169 | -83.94663 | 23620 ft | 437 kts | 148° |
| 2026-05-04 15:04 | 33.02661 | -83.92589 | 24140 ft | 440 kts | 149° |
| 2026-05-04 15:04 | 33.00135 | -83.90524 | 24674 ft | 442 kts | 149° |
| 2026-05-04 15:04 | 32.97592 | -83.88426 | 25233 ft | 444 kts | 149° |
| 2026-05-04 15:05 | 32.95065 | -83.86324 | 25853 ft | 443 kts | 149° |
| 2026-05-04 15:05 | 32.92535 | -83.84216 | 26306 ft | 447 kts | 149° |
| 2026-05-04 15:05 | 32.89969 | -83.82077 | 26626 ft | 453 kts | 149° |
| 2026-05-04 15:05 | 32.87370 | -83.79910 | 26945 ft | 459 kts | 149° |
| 2026-05-04 15:06 | 32.84740 | -83.77718 | 27275 ft | 464 kts | 149° |
| 2026-05-04 15:06 | 32.82077 | -83.75499 | 27596 ft | 470 kts | 149° |
| 2026-05-04 15:06 | 32.79386 | -83.73257 | 27916 ft | 475 kts | 149° |
| 2026-05-04 15:07 | 32.73918 | -83.68713 | 28597 ft | 483 kts | 149° |
| 2026-05-04 15:07 | 32.71162 | -83.66427 | 29038 ft | 483 kts | 149° |
| 2026-05-04 15:07 | 32.68458 | -83.64144 | 29522 ft | 483 kts | 148° |
| 2026-05-04 15:07 | 32.65761 | -83.61764 | 30008 ft | 482 kts | 148° |
| 2026-05-04 15:08 | 32.63075 | -83.59384 | 30480 ft | 480 kts | 148° |
| 2026-05-04 15:08 | 32.60402 | -83.57020 | 30929 ft | 479 kts | 148° |
| 2026-05-04 15:08 | 32.57726 | -83.54658 | 31362 ft | 478 kts | 148° |
| 2026-05-04 15:08 | 32.55061 | -83.52309 | 31767 ft | 477 kts | 149° |
| 2026-05-04 15:09 | 32.52399 | -83.49963 | 32138 ft | 477 kts | 149° |
| 2026-05-04 15:09 | 32.49727 | -83.47613 | 32447 ft | 477 kts | 149° |
| 2026-05-04 15:09 | 32.47057 | -83.45265 | 32764 ft | 478 kts | 149° |
| 2026-05-04 15:10 | 32.41714 | -83.40567 | 33403 ft | 478 kts | 149° |
| 2026-05-04 15:10 | 32.39034 | -83.38215 | 33698 ft | 479 kts | 149° |
| 2026-05-04 15:10 | 32.33710 | -83.33547 | 34184 ft | 480 kts | 149° |
| 2026-05-04 15:11 | 32.31023 | -83.31193 | 34217 ft | 480 kts | 149° |
| 2026-05-04 15:11 | 32.25658 | -83.26498 | 34197 ft | 480 kts | 149° |
| 2026-05-04 15:12 | 32.20287 | -83.21799 | 34194 ft | 480 kts | 149° |
| 2026-05-04 15:12 | 32.14914 | -83.17108 | 34200 ft | 480 kts | 149° |
| 2026-05-04 15:13 | 32.09540 | -83.12429 | 34196 ft | 480 kts | 149° |
| 2026-05-04 15:13 | 32.04158 | -83.07749 | 34188 ft | 480 kts | 149° |
| 2026-05-04 15:14 | 31.98787 | -83.03081 | 34181 ft | 480 kts | 149° |
| 2026-05-04 15:14 | 31.93383 | -82.98399 | 34179 ft | 485 kts | 149° |
| 2026-05-04 15:15 | 31.87942 | -82.93690 | 34181 ft | 485 kts | 149° |
| 2026-05-04 15:15 | 31.82506 | -82.88990 | 34180 ft | 485 kts | 149° |
| 2026-05-04 15:16 | 31.74513 | -82.81709 | 34174 ft | 488 kts | 147° |
| 2026-05-04 15:17 | 31.66607 | -82.74188 | 34180 ft | 487 kts | 147° |
| 2026-05-04 15:17 | 31.58688 | -82.66681 | 34181 ft | 488 kts | 147° |
| 2026-05-04 15:18 | 31.53408 | -82.61687 | 34176 ft | 488 kts | 147° |
| 2026-05-04 15:19 | 31.45474 | -82.54199 | 34170 ft | 488 kts | 147° |
| 2026-05-04 15:19 | 31.37540 | -82.46727 | 34175 ft | 488 kts | 147° |
| 2026-05-04 15:20 | 31.32239 | -82.41744 | 34181 ft | 489 kts | 147° |
| 2026-05-04 15:20 | 31.26929 | -82.36755 | 34180 ft | 490 kts | 147° |
| 2026-05-04 15:21 | 31.21603 | -82.31761 | 34181 ft | 490 kts | 147° |
| 2026-05-04 15:22 | 31.13638 | -82.24308 | 34181 ft | 491 kts | 147° |
| 2026-05-04 15:22 | 31.05612 | -82.16813 | 34180 ft | 493 kts | 147° |
| 2026-05-04 15:23 | 31.00233 | -82.11802 | 34184 ft | 494 kts | 147° |
| 2026-05-04 15:23 | 30.94857 | -82.06799 | 34195 ft | 496 kts | 147° |
| 2026-05-04 15:24 | 30.84046 | -81.96757 | 34192 ft | 498 kts | 148° |
| 2026-05-04 15:25 | 30.78624 | -81.91737 | 34180 ft | 499 kts | 148° |
| 2026-05-04 15:26 | 30.70475 | -81.84201 | 34184 ft | 500 kts | 148° |
| 2026-05-04 15:26 | 30.62207 | -81.76818 | 34178 ft | 494 kts | 156° |
| 2026-05-04 15:27 | 30.52959 | -81.72103 | 34177 ft | 484 kts | 166° |
| 2026-05-04 15:28 | 30.43582 | -81.67627 | 34170 ft | 487 kts | 166° |
| 2026-05-04 15:29 | 30.34196 | -81.63105 | 34169 ft | 487 kts | 166° |
| 2026-05-04 15:30 | 30.21660 | -81.57067 | 33376 ft | 485 kts | 165° |
| 2026-05-04 15:30 | 30.12296 | -81.52586 | 33641 ft | 484 kts | 166° |
| 2026-05-04 15:31 | 30.06086 | -81.49620 | 33894 ft | 486 kts | 166° |
| 2026-05-04 15:31 | 30.02954 | -81.48125 | 34016 ft | 487 kts | 166° |
| 2026-05-04 15:32 | 29.93529 | -81.43627 | 34202 ft | 489 kts | 166° |
| 2026-05-04 15:32 | 29.87237 | -81.40642 | 34186 ft | 489 kts | 166° |
| 2026-05-04 15:34 | 29.71540 | -81.33181 | 34170 ft | 487 kts | 166° |
| 2026-05-04 15:34 | 29.62143 | -81.28730 | 34171 ft | 487 kts | 166° |
| 2026-05-04 15:35 | 29.52758 | -81.24295 | 34171 ft | 486 kts | 166° |
| 2026-05-04 15:36 | 29.43415 | -81.19887 | 34170 ft | 485 kts | 166° |
| 2026-05-04 15:36 | 29.37172 | -81.16947 | 34170 ft | 485 kts | 166° |
| 2026-05-04 15:37 | 29.30927 | -81.14011 | 34161 ft | 485 kts | 166° |
| 2026-05-04 15:37 | 29.24653 | -81.11204 | 34161 ft | 483 kts | 167° |
| 2026-05-04 15:38 | 29.18372 | -81.08429 | 34160 ft | 483 kts | 167° |
| 2026-05-04 15:38 | 29.12145 | -81.05679 | 34160 ft | 482 kts | 167° |
| 2026-05-04 15:39 | 29.05891 | -81.02915 | 34160 ft | 482 kts | 167° |
| 2026-05-04 15:40 | 28.96497 | -80.98780 | 34151 ft | 482 kts | 167° |
| 2026-05-04 15:40 | 28.90240 | -80.96027 | 34152 ft | 481 kts | 167° |
| 2026-05-04 15:41 | 28.83980 | -80.93285 | 34147 ft | 481 kts | 167° |
| 2026-05-04 15:41 | 28.77773 | -80.90564 | 34141 ft | 480 kts | 167° |
| 2026-05-04 15:42 | 28.71543 | -80.87838 | 34135 ft | 480 kts | 167° |
| 2026-05-04 15:42 | 28.65276 | -80.85326 | 34131 ft | 476 kts | 170° |
| 2026-05-04 15:43 | 28.58975 | -80.82957 | 34130 ft | 476 kts | 170° |
| 2026-05-04 15:43 | 28.52679 | -80.80593 | 34135 ft | 476 kts | 170° |
| 2026-05-04 15:44 | 28.47448 | -80.78630 | 34147 ft | 476 kts | 170° |
| 2026-05-04 15:44 | 28.41161 | -80.76273 | 34144 ft | 476 kts | 170° |
| 2026-05-04 15:45 | 28.34870 | -80.73916 | 34137 ft | 476 kts | 170° |
| 2026-05-04 15:45 | 28.28598 | -80.71567 | 34119 ft | 475 kts | 170° |
| 2026-05-04 15:46 | 28.22311 | -80.69220 | 34111 ft | 475 kts | 170° |
| 2026-05-04 15:46 | 28.16035 | -80.66876 | 34112 ft | 474 kts | 170° |
| 2026-05-04 15:47 | 28.09761 | -80.64545 | 34126 ft | 474 kts | 170° |
| 2026-05-04 15:47 | 28.03487 | -80.62223 | 34130 ft | 475 kts | 170° |
| 2026-05-04 15:48 | 27.97205 | -80.59888 | 34118 ft | 474 kts | 170° |
| 2026-05-04 15:48 | 27.87825 | -80.56399 | 34111 ft | 473 kts | 170° |
| 2026-05-04 15:49 | 27.81564 | -80.54081 | 34118 ft | 473 kts | 170° |
| 2026-05-04 15:49 | 27.75346 | -80.51773 | 34120 ft | 473 kts | 170° |
| 2026-05-04 15:50 | 27.69195 | -80.49004 | 34115 ft | 487 kts | 156° |
| 2026-05-04 15:50 | 27.66454 | -80.46679 | 34116 ft | 500 kts | 142° |
| 2026-05-04 15:50 | 27.64166 | -80.43694 | 34126 ft | 507 kts | 131° |
| 2026-05-04 15:51 | 27.59988 | -80.37270 | 34122 ft | 508 kts | 130° |
| 2026-05-04 15:51 | 27.55789 | -80.30884 | 34113 ft | 506 kts | 131° |
| 2026-05-04 15:52 | 27.51551 | -80.24534 | 34110 ft | 506 kts | 131° |
| 2026-05-04 15:52 | 27.47320 | -80.18195 | 34104 ft | 506 kts | 131° |
| 2026-05-04 15:53 | 27.43082 | -80.11856 | 34101 ft | 506 kts | 131° |
| 2026-05-04 15:53 | 27.38845 | -80.05530 | 34095 ft | 506 kts | 131° |
| 2026-05-04 15:54 | 27.34607 | -79.99206 | 34088 ft | 506 kts | 131° |
| 2026-05-04 15:54 | 27.30374 | -79.92908 | 34089 ft | 503 kts | 132° |
| 2026-05-04 15:55 | 27.26146 | -79.86622 | 34089 ft | 503 kts | 132° |
| 2026-05-04 15:55 | 27.21920 | -79.80345 | 34094 ft | 503 kts | 132° |
| 2026-05-04 15:56 | 27.17729 | -79.74128 | 34087 ft | 503 kts | 132° |
| 2026-05-04 15:56 | 27.13501 | -79.67861 | 34081 ft | 501 kts | 132° |
| 2026-05-04 15:57 | 27.09265 | -79.61644 | 34080 ft | 501 kts | 133° |
| 2026-05-04 15:57 | 27.05033 | -79.55417 | 34079 ft | 501 kts | 133° |
| 2026-05-04 15:58 | 27.00815 | -79.49201 | 34079 ft | 500 kts | 133° |
| 2026-05-04 15:58 | 26.96594 | -79.42990 | 34078 ft | 500 kts | 133° |
| 2026-05-04 15:59 | 26.92414 | -79.36827 | 34082 ft | 500 kts | 132° |
| 2026-05-04 15:59 | 26.88223 | -79.30615 | 34081 ft | 499 kts | 133° |
| 2026-05-04 16:00 | 26.84003 | -79.24426 | 34078 ft | 499 kts | 133° |
| 2026-05-04 16:00 | 26.79783 | -79.18248 | 34076 ft | 498 kts | 133° |
| 2026-05-04 16:01 | 26.75569 | -79.12092 | 34077 ft | 498 kts | 133° |
| 2026-05-04 16:01 | 26.71385 | -79.05981 | 34077 ft | 497 kts | 133° |
| 2026-05-04 16:02 | 26.67175 | -78.99843 | 34069 ft | 496 kts | 133° |
| 2026-05-04 16:03 | 26.60858 | -78.90645 | 34071 ft | 496 kts | 133° |
| 2026-05-04 16:03 | 26.56654 | -78.84532 | 34073 ft | 496 kts | 134° |
| 2026-05-04 16:04 | 26.52531 | -78.78357 | 34066 ft | 500 kts | 127° |
| 2026-05-04 16:04 | 26.49827 | -78.71108 | 34074 ft | 510 kts | 112° |
| 2026-05-04 16:04 | 26.48740 | -78.67339 | 34074 ft | 510 kts | 112° |
| 2026-05-04 16:05 | 26.46529 | -78.59823 | 34070 ft | 509 kts | 113° |
| 2026-05-04 16:05 | 26.43489 | -78.52826 | 34071 ft | 494 kts | 132° |
| 2026-05-04 16:06 | 26.41389 | -78.49804 | 34075 ft | 491 kts | 135° |
| 2026-05-04 16:06 | 26.35700 | -78.41937 | 33813 ft | 486 kts | 135° |
| 2026-05-04 16:07 | 26.32870 | -78.37982 | 33375 ft | 489 kts | 135° |
| 2026-05-04 16:07 | 26.26486 | -78.29046 | 32607 ft | 493 kts | 135° |
| 2026-05-04 16:08 | 26.24337 | -78.26051 | 32351 ft | 494 kts | 135° |
| 2026-05-04 16:08 | 26.17922 | -78.17101 | 31613 ft | 496 kts | 134° |
| 2026-05-04 16:09 | 26.13609 | -78.11066 | 31112 ft | 498 kts | 134° |
| 2026-05-04 16:09 | 26.09275 | -78.05020 | 30599 ft | 500 kts | 134° |
| 2026-05-04 16:10 | 26.04921 | -77.98953 | 30098 ft | 502 kts | 134° |
| 2026-05-04 16:11 | 25.98459 | -77.89964 | 27982 ft | 490 kts | 134° |
| 2026-05-04 16:11 | 25.96331 | -77.87018 | 27208 ft | 487 kts | 134° |
| 2026-05-04 16:12 | 25.90054 | -77.78321 | 24917 ft | 474 kts | 133° |
| 2026-05-04 16:12 | 25.83959 | -77.69894 | 22685 ft | 457 kts | 133° |
| 2026-05-04 16:13 | 25.80020 | -77.64456 | 21244 ft | 446 kts | 133° |
| 2026-05-04 16:13 | 25.76175 | -77.59145 | 19876 ft | 435 kts | 133° |
| 2026-05-04 16:14 | 25.72433 | -77.54000 | 18643 ft | 422 kts | 133° |
| 2026-05-04 16:14 | 25.68433 | -77.49529 | 17512 ft | 395 kts | 154° |
| 2026-05-04 16:15 | 25.60893 | -77.48118 | 15966 ft | 364 kts | 184° |
| 2026-05-04 16:16 | 25.55819 | -77.47926 | 14988 ft | 364 kts | 182° |
| 2026-05-04 16:16 | 25.48232 | -77.47188 | 13451 ft | 366 kts | 176° |
| 2026-05-04 16:17 | 25.43190 | -77.46412 | 12479 ft | 364 kts | 176° |
| 2026-05-04 16:18 | 25.35723 | -77.45282 | 10976 ft | 351 kts | 176° |
| 2026-05-04 16:18 | 25.33348 | -77.44933 | 10706 ft | 337 kts | 176° |
| 2026-05-04 16:19 | 25.26808 | -77.43958 | 10081 ft | 297 kts | 176° |
| 2026-05-04 16:19 | 25.22755 | -77.43356 | 9145 ft | 294 kts | 175° |
| 2026-05-04 16:20 | 25.16754 | -77.42463 | 7925 ft | 288 kts | 175° |
| 2026-05-04 16:20 | 25.12789 | -77.41874 | 7157 ft | 285 kts | 175° |
| 2026-05-04 16:21 | 25.06973 | -77.41006 | 6004 ft | 280 kts | 175° |
| 2026-05-04 16:22 | 25.03135 | -77.40433 | 5262 ft | 274 kts | 174° |
| 2026-05-04 16:22 | 24.97464 | -77.39589 | 4147 ft | 275 kts | 174° |
| 2026-05-04 16:23 | 24.91914 | -77.38755 | 3433 ft | 257 kts | 171° |
| 2026-05-04 16:24 | 24.88239 | -77.33724 | 2708 ft | 239 kts | 112° |
| 2026-05-04 16:25 | 24.86988 | -77.30341 | 2254 ft | 237 kts | 112° |
| 2026-05-04 16:26 | 24.86695 | -77.23656 | 1990 ft | 223 kts | 43° |
| 2026-05-04 16:26 | 24.90897 | -77.22941 | 2000 ft | 215 kts | 330° |
| 2026-05-04 16:27 | 24.92653 | -77.25472 | 2000 ft | 214 kts | 283° |
| 2026-05-04 16:28 | 24.91438 | -77.30102 | 2010 ft | 216 kts | 257° |
| 2026-05-04 16:28 | 24.93101 | -77.34343 | 1906 ft | 214 kts | 316° |
| 2026-05-04 16:29 | 24.97383 | -77.38920 | 746 ft | 201 kts | 315° |
| 2026-05-04 16:30 | 24.99996 | -77.41809 | 223 ft | 155 kts | 314° |
| 2026-05-04 16:31 | 25.01387 | -77.43335 | 452 ft | 132 kts | 316° |
| 2026-05-04 16:31 | 25.03178 | -77.45344 | 40 ft | 120 kts | 312° |
| 2026-05-04 16:32 | 25.03937 | -77.46191 | 17 ft | 11 kts | 316° |
| 2026-05-04 16:33 | 25.04073 | -77.46335 | 16 ft | 16 kts | 316° |
| 2026-05-04 16:33 | 25.04253 | -77.46534 | 16 ft | 20 kts | 315° |
| 2026-05-04 16:34 | 25.04474 | -77.46779 | 18 ft | 25 kts | 314° |
| 2026-05-04 16:34 | 25.04591 | -77.46908 | 18 ft | 24 kts | 315° |
| 2026-05-04 16:35 | 25.04778 | -77.47033 | 20 ft | 7 kts | 59° |
| 2026-05-04 16:35 | 25.04935 | -77.46926 | 19 ft | 14 kts | 23° |
| 2026-05-04 16:36 | 25.05006 | -77.46879 | 19 ft | 13 kts | 355° |
| 2026-05-04 16:36 | 25.05046 | -77.46886 | 18 ft | 1 kts | 350° |
| 2026-05-04 16:37 | 25.05047 | -77.46887 | 18 ft | 0 kts | 350° |